createdAt,value
2019-05-02T00:02:04.612Z,58.87
2019-05-02T00:04:42.011Z,57.98
2019-05-02T00:07:20.130Z,59.14
2019-05-02T00:09:58.997Z,58.99
2019-05-02T00:12:38.309Z,58.38
2019-05-02T00:15:16.550Z,57.89
2019-05-02T00:17:56.880Z,58.42
2019-05-02T00:20:34.786Z,58.01
2019-05-02T00:23:12.260Z,57.79
2019-05-02T00:25:52.566Z,56.82
2019-05-02T00:28:29.798Z,57.04
2019-05-02T00:31:11.575Z,56.52
2019-05-02T00:33:46.985Z,55.90
2019-05-02T00:36:24.478Z,55.16
2019-05-02T00:39:02.192Z,55.58
2019-05-02T00:41:41.140Z,55.08
2019-05-02T00:44:18.625Z,55.26
2019-05-02T00:46:58.587Z,54.39
2019-05-02T00:49:36.679Z,55.25
2019-05-02T00:52:16.237Z,54.87
2019-05-02T00:54:54.997Z,54.48
2019-05-02T00:57:32.803Z,54.04
2019-05-02T01:00:13.325Z,53.53
2019-05-02T01:02:58.370Z,53.79
2019-05-02T01:05:38.513Z,54.11
2019-05-02T01:08:14.789Z,54.32
2019-05-02T01:10:56.774Z,53.87
2019-05-02T01:13:32.333Z,53.33
2019-05-02T01:16:09.942Z,52.90
2019-05-02T01:18:47.696Z,53.25
2019-05-02T01:21:24.882Z,52.14
2019-05-02T01:24:04.407Z,51.67
2019-05-02T01:26:47.313Z,52.16
2019-05-02T01:29:31.763Z,51.83
2019-05-02T01:32:25.283Z,51.28
2019-05-02T01:35:10.900Z,51.59
2019-05-02T01:38:16.075Z,51.31
2019-05-02T01:40:54.842Z,51.01
2019-05-02T01:43:32.672Z,50.83
2019-05-02T01:46:11.091Z,50.48
2019-05-02T01:48:48.519Z,49.92
2019-05-02T01:51:25.897Z,49.22
2019-05-02T01:54:05.169Z,47.85
2019-05-02T01:56:44.135Z,47.73
2019-05-02T01:59:21.469Z,47.41
2019-05-02T02:01:59.168Z,46.43
2019-05-02T02:04:37.271Z,46.53
2019-05-02T02:07:19.958Z,47.05
2019-05-02T02:09:54.889Z,45.81
2019-05-02T02:12:32.317Z,46.15
2019-05-02T02:15:10.110Z,46.50
2019-05-02T02:17:51.467Z,45.80
2019-05-02T02:20:30.676Z,45.75
2019-05-02T02:23:38.971Z,45.50
2019-05-02T02:26:17.589Z,44.96
2019-05-02T02:28:55.728Z,45.02
2019-05-02T02:31:39.917Z,46.21
2019-05-02T02:34:12.647Z,45.10
2019-05-02T02:36:50.239Z,44.72
2019-05-02T02:39:27.905Z,43.51
2019-05-02T02:42:06.654Z,43.90
2019-05-02T02:44:51.776Z,44.95
2019-05-02T02:47:29.914Z,44.03
2019-05-02T02:50:08.076Z,43.95
2019-05-02T02:52:47.153Z,44.15
2019-05-02T02:55:24.854Z,43.78
2019-05-02T02:58:04.808Z,44.20
2019-05-02T03:00:47.577Z,43.71
2019-05-02T03:03:28.034Z,43.20
2019-05-02T03:06:05.477Z,42.62
2019-05-02T03:08:46.671Z,43.94
2019-05-02T03:11:25.374Z,42.81
2019-05-02T03:14:24.957Z,43.00
2019-05-02T03:17:02.746Z,42.14
2019-05-02T03:19:40.181Z,41.66
2019-05-02T03:22:18.279Z,42.21
2019-05-02T03:24:56.226Z,42.06
2019-05-02T03:27:37.120Z,42.76
2019-05-02T03:30:29.927Z,42.85
2019-05-02T03:33:06.015Z,42.60
2019-05-02T03:35:43.765Z,42.35
2019-05-02T03:38:16.943Z,42.16
2019-05-02T03:40:54.559Z,41.37
2019-05-02T03:43:33.147Z,41.00
2019-05-02T03:46:13.507Z,40.68
2019-05-02T03:48:51.203Z,40.79
2019-05-02T03:51:29.702Z,41.37
2019-05-02T03:54:10.370Z,40.75
2019-05-02T03:56:51.248Z,40.50
2019-05-02T03:59:37.570Z,41.24
2019-05-02T04:02:14.018Z,42.17
2019-05-02T04:04:54.050Z,41.72
2019-05-02T04:07:27.049Z,40.94
2019-05-02T04:10:06.748Z,40.63
2019-05-02T04:12:43.646Z,42.54
2019-05-02T04:15:21.405Z,42.63
2019-05-02T04:17:58.740Z,41.30
2019-05-02T04:20:36.783Z,40.88
2019-05-02T04:23:21.440Z,41.31
2019-05-02T04:25:56.157Z,40.68
2019-05-02T04:28:35.627Z,39.88
2019-05-02T04:31:13.037Z,39.60
2019-05-02T04:33:52.137Z,39.38
2019-05-02T04:36:30.269Z,40.24
2019-05-02T04:39:15.038Z,40.21
2019-05-02T04:41:48.815Z,39.15
2019-05-02T04:44:32.219Z,40.07
2019-05-02T04:47:11.160Z,39.79
2019-05-02T04:49:44.543Z,39.07
2019-05-02T04:52:21.820Z,40.02
2019-05-02T04:55:08.155Z,40.30
2019-05-02T04:57:46.851Z,39.88
2019-05-02T05:00:20.539Z,39.73
2019-05-02T05:02:58.431Z,39.62
2019-05-02T05:05:40.282Z,40.37
2019-05-02T05:08:26.037Z,40.52
2019-05-02T05:10:57.334Z,40.47
2019-05-02T05:13:37.400Z,40.16
2019-05-02T05:16:15.712Z,39.61
2019-05-02T05:18:55.000Z,38.91
2019-05-02T05:21:32.457Z,38.34
2019-05-02T05:24:32.803Z,37.47
2019-05-02T05:27:08.229Z,38.43
2019-05-02T05:29:48.513Z,38.34
2019-05-02T05:32:25.255Z,38.00
2019-05-02T05:35:08.016Z,38.66
2019-05-02T05:37:47.976Z,37.56
2019-05-02T05:40:30.327Z,37.56
2019-05-02T05:43:11.244Z,37.83
2019-05-02T05:45:50.721Z,38.48
2019-05-02T05:48:20.229Z,38.86
2019-05-02T05:50:58.893Z,37.54
2019-05-02T05:53:37.523Z,37.38
2019-05-02T05:56:17.896Z,37.38
2019-05-02T05:58:58.902Z,37.34
2019-05-02T06:01:36.390Z,37.86
2019-05-02T06:04:22.132Z,37.98
2019-05-02T06:07:01.650Z,37.92
2019-05-02T06:09:35.782Z,37.30
2019-05-02T06:12:15.567Z,37.51
2019-05-02T06:14:56.382Z,37.05
2019-05-02T06:17:32.467Z,38.15
2019-05-02T06:20:11.233Z,38.53
2019-05-02T06:22:49.415Z,38.79
2019-05-02T06:25:34.382Z,40.86
2019-05-02T06:28:06.969Z,41.47
2019-05-02T06:30:44.365Z,39.73
2019-05-02T06:33:25.964Z,40.38
2019-05-02T06:36:03.005Z,41.45
2019-05-02T06:38:40.346Z,41.20
2019-05-02T06:41:20.980Z,39.94
2019-05-02T06:43:59.955Z,39.92
2019-05-02T06:46:37.016Z,40.60
2019-05-02T06:49:14.256Z,42.61
2019-05-02T06:51:56.184Z,43.83
2019-05-02T06:54:31.202Z,41.45
2019-05-02T06:57:09.087Z,41.79
2019-05-02T06:59:49.942Z,40.47
2019-05-02T07:02:28.355Z,41.00
2019-05-02T07:05:05.858Z,40.80
2019-05-02T07:07:43.924Z,40.34
2019-05-02T07:10:25.525Z,40.31
2019-05-02T07:13:10.019Z,40.46
2019-05-02T07:16:16.188Z,40.26
2019-05-02T07:18:55.828Z,40.49
2019-05-02T07:21:33.171Z,41.29
2019-05-02T07:24:12.171Z,40.28
2019-05-02T07:26:52.207Z,40.29
2019-05-02T07:29:31.525Z,41.26
2019-05-02T07:32:09.254Z,42.06
2019-05-02T07:34:48.179Z,41.67
2019-05-02T07:37:28.605Z,41.16
2019-05-02T07:40:06.749Z,40.56
2019-05-02T07:42:44.470Z,41.79
2019-05-02T07:45:22.966Z,40.98
2019-05-02T07:48:01.682Z,40.65
2019-05-02T07:50:41.183Z,41.30
2019-05-02T07:53:18.223Z,42.35
2019-05-02T07:55:55.867Z,40.97
2019-05-02T07:58:38.510Z,40.17
2019-05-02T08:01:13.363Z,41.01
2019-05-02T08:03:51.666Z,41.35
2019-05-02T08:06:35.300Z,40.83
2019-05-02T08:09:11.535Z,40.74
2019-05-02T08:11:48.936Z,40.38
2019-05-02T08:14:29.305Z,41.23
2019-05-02T08:17:16.285Z,40.61
2019-05-02T08:19:45.429Z,40.17
2019-05-02T08:22:23.266Z,40.17
2019-05-02T08:25:00.628Z,40.29
2019-05-02T08:27:52.890Z,40.66
2019-05-02T08:30:39.957Z,40.98
2019-05-02T08:33:14.317Z,40.85
2019-05-02T08:35:53.986Z,39.68
2019-05-02T08:38:32.241Z,39.67
2019-05-02T08:41:10.270Z,39.67
2019-05-02T08:43:47.730Z,40.98
2019-05-02T08:46:25.386Z,39.96
2019-05-02T08:49:04.765Z,39.96
2019-05-02T08:51:42.206Z,41.34
2019-05-02T08:54:19.437Z,40.84
2019-05-02T08:56:59.001Z,40.17
2019-05-02T08:59:40.883Z,40.37
2019-05-02T09:02:21.170Z,40.37
2019-05-02T09:04:58.978Z,41.05
2019-05-02T09:07:39.330Z,42.43
2019-05-02T09:10:15.698Z,42.93
2019-05-02T09:12:53.896Z,43.58
2019-05-02T09:15:34.982Z,43.56
2019-05-02T09:18:12.383Z,43.23
2019-05-02T09:20:52.569Z,43.52
2019-05-02T09:23:33.134Z,43.53
2019-05-02T09:26:09.376Z,44.06
2019-05-02T09:28:46.758Z,44.38
2019-05-02T09:31:23.993Z,44.50
2019-05-02T09:34:02.708Z,44.23
2019-05-02T09:36:41.589Z,44.29
2019-05-02T09:39:20.061Z,44.72
2019-05-02T09:41:57.498Z,45.81
2019-05-02T09:44:36.196Z,45.71
2019-05-02T09:47:27.485Z,45.05
2019-05-02T09:50:10.405Z,44.95
2019-05-02T09:52:49.223Z,46.71
2019-05-02T09:55:27.108Z,46.09
2019-05-02T09:58:04.446Z,45.94
2019-05-02T10:00:58.602Z,46.21
2019-05-02T10:03:36.154Z,45.98
2019-05-02T10:06:18.199Z,46.54
2019-05-02T10:08:53.285Z,46.30
2019-05-02T10:11:32.173Z,46.14
2019-05-02T10:14:09.396Z,46.64
2019-05-02T10:16:47.923Z,47.04
2019-05-02T10:19:26.113Z,47.13
2019-05-02T10:22:03.903Z,47.75
2019-05-02T10:24:43.110Z,47.39
2019-05-02T10:27:21.725Z,47.73
2019-05-02T10:30:08.216Z,48.11
2019-05-02T10:32:37.684Z,47.72
2019-05-02T10:35:16.685Z,47.48
2019-05-02T10:37:54.654Z,47.29
2019-05-02T10:40:32.534Z,47.61
2019-05-02T10:43:11.789Z,48.27
2019-05-02T10:45:52.730Z,48.46
2019-05-02T10:48:33.257Z,48.00
2019-05-02T10:51:28.056Z,48.13
2019-05-02T10:54:05.817Z,48.73
2019-05-02T10:56:43.948Z,48.02
2019-05-02T10:59:22.201Z,48.60
2019-05-02T11:02:18.219Z,49.93
2019-05-02T11:04:58.669Z,50.23
2019-05-02T11:07:36.787Z,50.61
2019-05-02T11:10:14.857Z,50.61
2019-05-02T11:13:22.533Z,50.38
2019-05-02T11:16:25.418Z,49.88
2019-05-02T11:19:05.638Z,50.10
2019-05-02T11:21:55.337Z,49.72
2019-05-02T11:24:22.591Z,49.93
2019-05-02T11:27:02.187Z,50.36
2019-05-02T11:29:39.476Z,50.73
2019-05-02T11:32:17.197Z,51.46
2019-05-02T11:34:54.613Z,51.41
2019-05-02T11:37:32.861Z,49.34
2019-05-02T11:40:12.875Z,50.14
2019-05-02T11:42:52.150Z,51.11
2019-05-02T11:45:29.733Z,50.85
2019-05-02T11:48:09.072Z,49.67
2019-05-02T11:50:46.731Z,50.27
2019-05-02T11:53:29.199Z,51.02
2019-05-02T11:56:07.519Z,51.67
2019-05-02T11:58:48.352Z,51.98
2019-05-02T12:01:35.518Z,51.90
2019-05-02T12:04:07.595Z,51.71
2019-05-02T12:06:42.843Z,51.26
2019-05-02T12:09:22.300Z,50.51
2019-05-02T12:11:59.612Z,51.35
2019-05-02T12:14:38.500Z,52.33
2019-05-02T12:17:16.174Z,51.82
2019-05-02T12:19:53.482Z,51.51
2019-05-02T12:22:32.456Z,52.21
2019-05-02T12:25:12.623Z,52.59
2019-05-02T12:27:49.484Z,52.81
2019-05-02T12:30:28.943Z,53.33
2019-05-02T12:33:06.820Z,54.52
2019-05-02T12:35:45.130Z,53.63
2019-05-02T12:38:23.112Z,54.89
2019-05-02T12:41:02.695Z,55.59
2019-05-02T12:43:41.598Z,56.10
2019-05-02T12:46:22.099Z,56.00
2019-05-02T12:48:59.098Z,56.51
2019-05-02T12:51:36.384Z,57.76
2019-05-02T12:54:14.157Z,57.78
2019-05-02T12:56:52.860Z,58.18
2019-05-02T12:59:32.222Z,58.08
2019-05-02T13:02:15.554Z,58.83
2019-05-02T13:04:52.612Z,58.90
2019-05-02T13:07:31.751Z,58.97
2019-05-02T13:10:11.795Z,58.48
2019-05-02T13:12:49.532Z,58.75
2019-05-02T13:15:27.224Z,58.24
2019-05-02T13:18:05.578Z,58.16
2019-05-02T13:20:42.805Z,58.97
2019-05-02T13:23:42.656Z,57.84
2019-05-02T13:26:24.964Z,57.43
2019-05-02T13:28:59.926Z,58.21
2019-05-02T13:31:46.216Z,58.95
2019-05-02T13:34:34.703Z,58.56
2019-05-02T13:37:15.543Z,58.27
2019-05-02T13:40:12.138Z,58.23
2019-05-02T13:42:49.764Z,57.57
2019-05-02T13:45:52.721Z,56.20
2019-05-02T13:48:32.170Z,56.77
2019-05-02T13:51:11.763Z,56.63
2019-05-02T13:54:02.337Z,56.53
2019-05-02T13:56:52.346Z,55.86
2019-05-02T13:59:29.783Z,56.04
2019-05-02T14:02:08.537Z,56.79
2019-05-02T14:04:46.751Z,56.12
2019-05-02T14:07:24.338Z,56.33
2019-05-02T14:10:04.916Z,56.67
2019-05-02T14:12:52.737Z,56.84
2019-05-02T14:15:34.315Z,56.80
2019-05-02T14:18:12.493Z,56.05
2019-05-02T14:20:49.580Z,56.91
2019-05-02T14:23:28.306Z,56.51
2019-05-02T14:26:05.448Z,56.54
2019-05-02T14:28:43.704Z,56.92
2019-05-02T14:31:21.683Z,57.50
2019-05-02T14:34:16.682Z,57.76
2019-05-02T14:36:59.204Z,57.03
2019-05-02T14:39:34.385Z,57.40
2019-05-02T14:42:15.277Z,58.77
2019-05-02T14:45:05.627Z,57.99
2019-05-02T14:47:35.313Z,58.36
2019-05-02T14:50:23.447Z,58.35
2019-05-02T14:52:52.720Z,58.56
2019-05-02T14:55:32.549Z,58.54
2019-05-02T14:58:09.902Z,58.57
2019-05-02T15:00:52.820Z,58.30
2019-05-02T15:03:32.956Z,58.99
2019-05-02T15:06:11.680Z,59.41
2019-05-02T15:08:52.563Z,58.75
2019-05-02T15:11:34.825Z,58.92
2019-05-02T15:14:18.364Z,59.52
2019-05-02T15:16:55.244Z,58.75
2019-05-02T15:19:32.681Z,59.35
2019-05-02T15:22:09.586Z,60.87
2019-05-02T15:24:47.073Z,61.34
2019-05-02T15:27:38.630Z,62.20
2019-05-02T15:30:07.245Z,61.73
2019-05-02T15:32:54.616Z,63.78
2019-05-02T15:35:57.245Z,64.06
2019-05-02T15:38:37.363Z,64.58
2019-05-02T15:41:15.490Z,65.83
2019-05-02T15:43:53.192Z,67.10
2019-05-02T15:46:31.880Z,67.42
2019-05-02T15:49:12.198Z,67.57
2019-05-02T15:51:52.155Z,67.73
2019-05-02T15:54:29.011Z,68.64
2019-05-02T15:57:06.377Z,68.91
2019-05-02T15:59:46.294Z,68.74
2019-05-02T16:02:26.515Z,69.68
2019-05-02T16:05:05.442Z,68.90
2019-05-02T16:07:46.594Z,67.85
2019-05-02T16:10:22.616Z,68.57
2019-05-02T16:13:01.279Z,68.98
2019-05-02T16:15:39.763Z,68.53
2019-05-02T16:18:17.242Z,68.83
2019-05-02T16:21:07.006Z,69.34
2019-05-02T16:23:42.480Z,69.55
2019-05-02T16:26:20.146Z,68.62
2019-05-02T16:28:57.460Z,68.73
2019-05-02T16:31:36.759Z,70.19
2019-05-02T16:34:15.084Z,68.80
2019-05-02T16:36:54.334Z,68.62
2019-05-02T16:39:32.472Z,68.74
2019-05-02T16:42:12.467Z,69.20
2019-05-02T16:44:52.301Z,69.15
2019-05-02T16:47:30.098Z,69.04
2019-05-02T16:50:08.724Z,68.40
2019-05-02T16:52:47.434Z,69.77
2019-05-02T16:55:26.744Z,68.94
2019-05-02T16:58:06.932Z,68.80
2019-05-02T17:00:45.537Z,69.34
2019-05-02T17:03:26.369Z,69.51
2019-05-02T17:06:02.309Z,68.83
2019-05-02T17:08:57.460Z,68.64
2019-05-02T17:11:36.177Z,68.63
2019-05-02T17:14:14.386Z,69.85
2019-05-02T17:16:55.892Z,68.96
2019-05-02T17:19:34.768Z,68.56
2019-05-02T17:22:12.176Z,68.70
2019-05-02T17:24:50.244Z,68.84
2019-05-02T17:27:27.784Z,68.65
2019-05-02T17:30:05.619Z,67.70
2019-05-02T17:32:43.340Z,68.06
2019-05-02T17:35:22.081Z,68.60
2019-05-02T17:38:00.066Z,68.08
2019-05-02T17:40:37.728Z,67.96
2019-05-02T17:43:15.215Z,68.73
2019-05-02T17:45:53.887Z,67.64
2019-05-02T17:48:34.227Z,68.51
2019-05-02T17:51:33.996Z,67.56
2019-05-02T17:54:12.048Z,67.69
2019-05-02T17:56:52.233Z,67.49
2019-05-02T17:59:36.043Z,67.17
2019-05-02T18:02:12.482Z,68.10
2019-05-02T18:04:52.037Z,69.11
2019-05-02T18:07:32.125Z,68.47
2019-05-02T18:10:16.666Z,68.14
2019-05-02T18:12:55.856Z,68.65
2019-05-02T18:15:29.930Z,69.12
2019-05-02T18:18:08.010Z,69.00
2019-05-02T18:20:46.681Z,69.60
2019-05-02T18:23:27.616Z,69.87
2019-05-02T18:26:06.208Z,69.85
2019-05-02T18:28:48.984Z,69.76
2019-05-02T18:31:22.776Z,69.19
2019-05-02T18:34:01.741Z,70.47
2019-05-02T18:36:41.633Z,69.93
2019-05-02T18:39:19.271Z,69.37
2019-05-02T18:41:56.901Z,69.71
2019-05-02T18:44:34.475Z,69.24
2019-05-02T18:47:19.648Z,69.80
2019-05-02T18:49:53.814Z,69.14
2019-05-02T18:52:38.401Z,68.77
2019-05-02T18:55:11.628Z,68.62
2019-05-02T18:57:48.884Z,67.61
2019-05-02T19:00:35.172Z,67.55
2019-05-02T19:03:07.436Z,67.61
2019-05-02T19:05:46.720Z,66.72
2019-05-02T19:08:46.617Z,66.53
2019-05-02T19:11:26.775Z,66.68
2019-05-02T19:14:02.727Z,67.20
2019-05-02T19:16:42.657Z,66.92
2019-05-02T19:19:20.065Z,66.56
2019-05-02T19:21:58.540Z,66.31
2019-05-02T19:24:37.501Z,67.27
2019-05-02T19:27:21.001Z,66.26
2019-05-02T19:29:56.572Z,65.51
2019-05-02T19:32:34.699Z,66.96
2019-05-02T19:35:12.027Z,66.97
2019-05-02T19:37:49.382Z,66.45
2019-05-02T19:40:28.493Z,66.14
2019-05-02T19:43:07.824Z,65.47
2019-05-02T19:45:50.286Z,68.32
2019-05-02T19:48:27.399Z,67.83
2019-05-02T19:51:04.212Z,68.20
2019-05-02T19:53:42.963Z,68.74
2019-05-02T19:56:21.941Z,69.29
2019-05-02T19:58:59.392Z,70.07
2019-05-02T20:01:36.871Z,69.50
2019-05-02T20:04:14.774Z,69.61
2019-05-02T20:06:52.174Z,70.27
2019-05-02T20:09:31.458Z,70.49
2019-05-02T20:12:13.408Z,70.82
2019-05-02T20:14:48.911Z,69.82
2019-05-02T20:17:26.717Z,69.63
2019-05-02T20:20:07.289Z,70.61
2019-05-02T20:22:44.617Z,69.37
2019-05-02T20:25:22.838Z,68.54
2019-05-02T20:28:01.975Z,69.45
2019-05-02T20:30:39.487Z,70.19
2019-05-02T20:33:17.092Z,69.79
2019-05-02T20:35:55.520Z,68.94
2019-05-02T20:38:33.295Z,69.40
2019-05-02T20:41:12.556Z,69.87
2019-05-02T20:43:51.701Z,69.89
2019-05-02T20:46:29.194Z,69.11
2019-05-02T20:49:07.579Z,69.81
2019-05-02T20:51:46.404Z,70.53
2019-05-02T20:54:27.320Z,71.02
2019-05-02T20:57:05.467Z,69.48
2019-05-02T20:59:43.858Z,69.32
2019-05-02T21:02:21.858Z,70.89
2019-05-02T21:04:58.602Z,71.88
2019-05-02T21:07:55.948Z,70.51
2019-05-02T21:10:36.759Z,71.65
2019-05-02T21:13:14.440Z,72.18
2019-05-02T21:15:52.463Z,72.35
2019-05-02T21:18:32.903Z,72.44
2019-05-02T21:21:12.606Z,71.04
2019-05-02T21:23:49.974Z,71.06
2019-05-02T21:26:27.025Z,72.53
2019-05-02T21:29:06.834Z,72.46
2019-05-02T21:31:46.559Z,72.23
2019-05-02T21:34:24.694Z,71.86
2019-05-02T21:37:02.557Z,73.16
2019-05-02T21:39:42.541Z,74.00
2019-05-02T21:42:20.029Z,73.07
2019-05-02T21:44:57.573Z,71.54
2019-05-02T21:47:35.157Z,72.97
2019-05-02T21:50:25.716Z,73.58
2019-05-02T21:53:22.197Z,73.19
2019-05-02T21:56:05.142Z,73.19
2019-05-02T21:58:44.816Z,73.94
2019-05-02T22:01:23.051Z,73.50
2019-05-02T22:04:02.279Z,73.61
2019-05-02T22:06:42.769Z,72.24
2019-05-02T22:09:20.324Z,72.26
2019-05-02T22:11:58.346Z,72.15
2019-05-02T22:14:35.880Z,70.62
2019-05-02T22:17:13.712Z,70.34
2019-05-02T22:19:52.432Z,70.61
2019-05-02T22:22:31.770Z,71.00
2019-05-02T22:25:11.599Z,69.84
2019-05-02T22:27:48.924Z,69.65
2019-05-02T22:30:26.308Z,70.74
2019-05-02T22:33:04.047Z,71.15
2019-05-02T22:35:43.355Z,71.71
2019-05-02T22:38:46.443Z,70.97
2019-05-02T22:41:23.029Z,71.04
2019-05-02T22:44:01.865Z,71.19
2019-05-02T22:46:43.872Z,71.86
2019-05-02T22:49:22.484Z,71.50
2019-05-02T22:52:00.301Z,70.19
2019-05-02T22:54:41.554Z,71.90
2019-05-02T22:57:19.662Z,72.42
2019-05-02T22:59:57.160Z,71.97
2019-05-02T23:02:34.278Z,70.89
2019-05-02T23:05:12.450Z,71.53
2019-05-02T23:07:52.654Z,72.36
2019-05-02T23:10:30.338Z,72.23
2019-05-02T23:13:08.221Z,71.35
2019-05-02T23:15:46.034Z,72.25
2019-05-02T23:18:23.666Z,72.25
2019-05-02T23:21:02.159Z,71.66
2019-05-02T23:23:39.326Z,72.11
2019-05-02T23:26:35.406Z,71.28
2019-05-02T23:29:13.824Z,71.41
2019-05-02T23:31:51.750Z,71.02
2019-05-02T23:34:28.970Z,70.03
2019-05-02T23:37:06.678Z,68.84
2019-05-02T23:39:45.094Z,69.93
2019-05-02T23:42:23.466Z,69.65
2019-05-02T23:45:02.674Z,69.28
2019-05-02T23:47:42.049Z,69.27
2019-05-02T23:50:19.732Z,68.90
2019-05-02T23:52:57.332Z,69.32
2019-05-02T23:55:34.513Z,68.88
2019-05-02T23:58:12.670Z,67.13
